Vienna Heights, NY

3:25 AM EST on December 04, 2016 (GMT -0500)
Vienna Court | | Change Station

Elev 423 ft 42.95 °N, 73.91 °W | Updated 2 minutes ago

Mostly Cloudy
Mostly Cloudy
32.3 °F
Feels Like 27 °F
N
5.0
Wind Variable Wind from NW
Gusts 11.0 mph

Today
High -- | Low -- °F
--% Chance of Precip.
Yesterday
High -- | Low -- °F
Precip. -- in
Pressure 30.21 in
Visibility 10.0 miles
Clouds Mostly Cloudy 4400 ft
Windchill 27 °F
Dew Point 21 °F
Humidity 64%
Rainfall 0.00 in
Snow Depth Not available.
7:10 AM 4:21 PM
Waxing Crescent, 21% visible
METAR KALB 040751Z 30009KT 10SM BKN044 01/M08 A3020 RMK AO2 SLP230 BKN V OVC T00111078 $
Pressure 30.21 in
Visibility 10.0 miles
Clouds Mostly Cloudy 4400 ft
Windchill 27 °F
Dew Point 21 °F
Humidity 64%
Rainfall 0.00 in
Snow Depth Not available.
7:10 AM 4:21 PM
Waxing Crescent, 21% visible
METAR KALB 040751Z 30009KT 10SM BKN044 01/M08 A3020 RMK AO2 SLP230 BKN V OVC T00111078 $

10-Day Weather Forecast

Almanac

Astronomy

Dec. 04, 2016 Rise Set
Actual Time
Civil Twilight
Nautical Twilight
Astronomical Twilight
Moon
Length of Visible Light
Length of Day
Tomorrow will be .
, % of the Moon is Illuminated

Today's Extremes

State Highs State Lows

Community

WunderPhotos

Upload Photos

1,955,587 photos uploaded!

WunderBlog® & News

Nearby

Air Quality

  Air Quality AQ Index Pollutant
Not available.

Snow Depth

Station Depth Elevation

Earthquake Activity

City Distance Mag. Time & Date
Minimum magnitude displayed is 2.5.

Coastal Water Temperatures

Place Temperature

Stations

Nearby Weather Stations

Station Location Temp. Windchill Dew Point Humidity Wind Precip. Elev Updated Type
                   

Watches & Warnings

There are currently no watches in effect.